Time;durP1;ratioP1;P1;durP2;ratioP2;P2;SDS_P1;SDS_P2;PMS_P1;PMS_P2;Temp;Humidity;BMP_temperature;BMP_pressure;BME280_temperature;BME280_humidity;BME280_pressure;Samples;Min_cycle;Max_cycle;Signal;HPM_P1;HPM_P2
2022/04/02 00:00:09;;;;;;;21.03;18.93;;;;;;;;;;510104;29;1748;-85
2022/04/02 00:00:27;;;;;;;21.20;19.10;;;;;;;;;;509687;29;1386;-87
2022/04/02 00:00:42;;;;;;;21.08;18.98;;;;;;;;;;509806;29;1515;-85
2022/04/02 00:00:58;;;;;;;20.65;18.63;;;;;;;;;;510239;29;1635;-86
2022/04/02 00:01:16;;;;;;;20.80;18.70;;;;;;;;;;512207;28;1472;-85
2022/04/02 00:01:31;;;;;;;21.00;18.80;;;;;;;;;;512352;28;1445;-86
2022/04/02 00:01:47;;;;;;;19.97;18.03;;;;;;;;;;512376;28;1570;-85
2022/04/02 00:02:03;;;;;;;19.40;17.58;;;;;;;;;;512563;28;1394;-85
2022/04/02 00:02:19;;;;;;;19.73;17.83;;;;;;;;;;512803;28;1890;-85
2022/04/02 00:02:34;;;;;;;19.90;17.98;;;;;;;;;;514404;28;1424;-86
2022/04/02 00:02:50;;;;;;;20.20;18.20;;;;;;;;;;513478;28;1814;-86
2022/04/02 00:03:06;;;;;;;20.30;18.30;;;;;;;;;;512795;28;1554;-85
2022/04/02 00:03:22;;;;;;;19.95;18.05;;;;;;;;;;511506;28;1437;-85
2022/04/02 00:03:37;;;;;;;20.20;18.20;;;;;;;;;;510401;29;1553;-86
2022/04/02 00:03:53;;;;;;;20.33;18.33;;;;;;;;;;510304;29;1559;-86
2022/04/02 00:04:09;;;;;;;20.70;18.67;;;;;;;;;;509855;29;1546;-85
2022/04/02 00:04:25;;;;;;;21.27;19.15;;;;;;;;;;512517;28;1552;-85
2022/04/02 00:04:40;;;;;;;21.50;19.37;;;;;;;;;;512398;28;1529;-85
2022/04/02 00:04:57;;;;;;;22.05;19.85;;;;;;;;;;512875;28;1386;-86
2022/04/02 00:05:12;;;;;;;22.10;19.90;;;;;;;;;;512769;28;1426;-86
2022/04/02 00:05:28;;;;;;;21.75;19.65;;;;;;;;;;514189;28;1610;-86
2022/04/02 00:05:44;;;;;;;21.42;19.33;;;;;;;;;;514315;28;1319;-85
2022/04/02 00:05:59;;;;;;;21.60;19.50;;;;;;;;;;512328;28;1770;-86
2022/04/02 00:06:15;;;;;;;21.95;19.75;;;;;;;;;;512425;28;1441;-88
2022/04/02 00:06:30;;;;;;;21.33;19.20;;;;;;;;;;511529;28;1564;-87
2022/04/02 00:06:46;;;;;;;21.15;19.05;;;;;;;;;;509762;29;1374;-86
2022/04/02 00:07:02;;;;;;;21.60;19.50;;;;;;;;;;510177;28;1473;-87
2022/04/02 00:07:18;;;;;;;21.63;19.52;;;;;;;;;;512259;28;1464;-86
2022/04/02 00:07:33;;;;;;;21.33;19.23;;;;;;;;;;510114;28;1607;-86
2022/04/02 00:07:49;;;;;;;21.52;19.42;;;;;;;;;;512749;28;1462;-86
2022/04/02 00:08:05;;;;;;;21.57;19.47;;;;;;;;;;512157;28;1425;-86
2022/04/02 00:08:20;;;;;;;21.00;18.90;;;;;;;;;;512395;28;1890;-86
2022/04/02 00:08:36;;;;;;;20.10;18.17;;;;;;;;;;512558;28;1449;-85
2022/04/02 00:08:51;;;;;;;20.23;18.23;;;;;;;;;;510625;28;1529;-87
2022/04/02 00:09:07;;;;;;;20.23;18.13;;;;;;;;;;511771;28;1566;-86
2022/04/02 00:09:22;;;;;;;19.80;17.70;;;;;;;;;;510095;28;1517;-86
2022/04/02 00:09:38;;;;;;;20.63;18.43;;;;;;;;;;511989;28;1855;-85
2022/04/02 00:09:54;;;;;;;21.23;19.13;;;;;;;;;;510132;28;1446;-87
2022/04/02 00:10:09;;;;;;;20.93;18.87;;;;;;;;;;512243;28;1507;-85
2022/04/02 00:10:25;;;;;;;20.42;18.35;;;;;;;;;;512533;28;1434;-85
2022/04/02 00:10:41;;;;;;;20.15;18.15;;;;;;;;;;512661;28;1524;-85
2022/04/02 00:10:57;;;;;;;20.10;18.10;;;;;;;;;;513829;28;1524;-86
2022/04/02 00:11:12;;;;;;;20.48;18.42;;;;;;;;;;513708;28;1498;-86
2022/04/02 00:11:28;;;;;;;20.57;18.50;;;;;;;;;;513474;28;1547;-86
2022/04/02 00:11:45;;;;;;;20.33;18.23;;;;;;;;;;514340;28;1448;-86
2022/04/02 00:12:02;;;;;;;20.38;18.27;;;;;;;;;;516334;28;1589;-86
2022/04/02 00:12:17;;;;;;;19.10;17.20;;;;;;;;;;514209;28;1494;-86
2022/04/02 00:12:33;;;;;;;19.00;17.00;;;;;;;;;;512414;28;1441;-87
2022/04/02 00:12:49;;;;;;;18.80;16.90;;;;;;;;;;513290;28;1681;-86
2022/04/02 00:13:04;;;;;;;18.60;16.80;;;;;;;;;;514518;28;1476;-87
2022/04/02 00:13:19;;;;;;;18.87;17.07;;;;;;;;;;512566;28;1564;-85
2022/04/02 00:13:35;;;;;;;18.90;17.10;;;;;;;;;;513046;28;1927;-86
2022/04/02 00:13:51;;;;;;;18.48;16.58;;;;;;;;;;512488;28;1555;-86
2022/04/02 00:14:07;;;;;;;18.08;16.17;;;;;;;;;;512166;28;1409;-86
2022/04/02 00:14:22;;;;;;;18.63;16.83;;;;;;;;;;510442;29;1716;-85
2022/04/02 00:14:37;;;;;;;18.43;16.63;;;;;;;;;;508224;29;1538;-85
2022/04/02 00:14:53;;;;;;;17.20;15.50;;;;;;;;;;508780;29;1525;-86
2022/04/02 00:15:09;;;;;;;17.10;15.40;;;;;;;;;;508490;29;1561;-85
2022/04/02 00:15:24;;;;;;;17.67;15.88;;;;;;;;;;508982;29;1423;-85
2022/04/02 00:15:40;;;;;;;17.33;15.63;;;;;;;;;;508994;29;1564;-86
2022/04/02 00:15:57;;;;;;;17.55;15.82;;;;;;;;;;509079;29;1329;-86
2022/04/02 00:16:12;;;;;;;18.77;16.90;;;;;;;;;;509052;29;1445;-86
2022/04/02 00:16:28;;;;;;;18.52;16.73;;;;;;;;;;508934;29;1354;-86
2022/04/02 00:16:46;;;;;;;18.00;16.30;;;;;;;;;;509147;29;1664;-85
2022/04/02 00:17:02;;;;;;;18.80;16.90;;;;;;;;;;508515;28;1508;-85
2022/04/02 00:17:17;;;;;;;18.90;17.00;;;;;;;;;;507575;29;1435;-85
2022/04/02 00:17:33;;;;;;;18.50;16.60;;;;;;;;;;507232;29;1462;-84
2022/04/02 00:17:51;;;;;;;18.77;16.77;;;;;;;;;;505884;29;1373;-85
2022/04/02 00:18:06;;;;;;;18.33;16.42;;;;;;;;;;506892;29;1573;-80
2022/04/02 00:18:22;;;;;;;18.50;16.70;;;;;;;;;;509730;29;1665;-80
2022/04/02 00:18:38;;;;;;;19.10;17.10;;;;;;;;;;510750;29;1784;-80
2022/04/02 00:18:55;;;;;;;19.15;17.10;;;;;;;;;;511332;28;1414;-80
2022/04/02 00:19:10;;;;;;;18.95;16.95;;;;;;;;;;511756;28;1493;-80
2022/04/02 00:19:26;;;;;;;18.27;16.37;;;;;;;;;;513257;28;1432;-81
2022/04/02 00:19:43;;;;;;;17.80;16.10;;;;;;;;;;513320;28;1610;-80
2022/04/02 00:19:58;;;;;;;18.00;16.25;;;;;;;;;;510197;28;1406;-80
2022/04/02 00:20:13;;;;;;;18.00;16.10;;;;;;;;;;509844;29;1665;-80
2022/04/02 00:20:29;;;;;;;18.33;16.27;;;;;;;;;;510189;29;1513;-80
2022/04/02 00:20:44;;;;;;;18.38;16.35;;;;;;;;;;509742;29;1763;-80
2022/04/02 00:21:00;;;;;;;18.40;16.40;;;;;;;;;;507094;29;1354;-80
2022/04/02 00:21:16;;;;;;;18.05;16.10;;;;;;;;;;506475;29;1564;-80
2022/04/02 00:21:32;;;;;;;17.35;15.68;;;;;;;;;;508552;29;1510;-80
2022/04/02 00:21:47;;;;;;;17.02;15.43;;;;;;;;;;508927;29;1501;-80
2022/04/02 00:22:04;;;;;;;16.97;15.37;;;;;;;;;;510651;29;1456;-80
2022/04/02 00:22:20;;;;;;;17.17;15.50;;;;;;;;;;511028;28;1382;-80
2022/04/02 00:22:35;;;;;;;17.20;15.50;;;;;;;;;;513125;28;1783;-80
2022/04/02 00:23:35;;;;;;;15.85;14.30;;;;;;;;;;516839;28;1436;-80
2022/04/02 00:23:52;;;;;;;15.40;14.00;;;;;;;;;;516331;28;1488;-80
2022/04/02 00:24:07;;;;;;;15.20;13.80;;;;;;;;;;516622;28;1669;-80
2022/04/02 00:24:23;;;;;;;14.93;13.52;;;;;;;;;;516884;28;1969;-80
2022/04/02 00:24:38;;;;;;;14.90;13.50;;;;;;;;;;515689;28;1618;-80
2022/04/02 00:24:54;;;;;;;14.40;13.00;;;;;;;;;;516463;28;1560;-80
2022/04/02 00:25:09;;;;;;;14.57;13.20;;;;;;;;;;514229;28;1552;-80
2022/04/02 00:25:25;;;;;;;14.70;13.30;;;;;;;;;;514414;28;1547;-80
2022/04/02 00:25:40;;;;;;;14.00;12.70;;;;;;;;;;514311;28;1649;-80
2022/04/02 00:25:55;;;;;;;13.47;12.27;;;;;;;;;;512873;28;1318;-80
2022/04/02 00:26:16;;;;;;;13.93;12.57;;;;;;;;;;512552;28;1689;-80
2022/04/02 00:26:31;;;;;;;13.85;12.50;;;;;;;;;;513566;28;1934;-80
2022/04/02 00:26:47;;;;;;;14.15;12.82;;;;;;;;;;512083;28;2080;-80
2022/04/02 00:27:02;;;;;;;14.27;12.87;;;;;;;;;;512525;28;1382;-80
2022/04/02 00:27:18;;;;;;;14.18;12.85;;;;;;;;;;512273;28;1501;-80
2022/04/02 00:27:33;;;;;;;14.30;13.00;;;;;;;;;;512625;28;1445;-80
2022/04/02 00:27:49;;;;;;;14.60;13.20;;;;;;;;;;513334;28;1448;-83
2022/04/02 00:28:04;;;;;;;14.83;13.37;;;;;;;;;;514302;28;1444;-80
2022/04/02 00:28:19;;;;;;;14.90;13.40;;;;;;;;;;514768;28;1554;-80
2022/04/02 00:28:36;;;;;;;14.77;13.37;;;;;;;;;;516644;28;1470;-80
2022/04/02 00:28:53;;;;;;;14.82;13.43;;;;;;;;;;513385;28;1726;-80
2022/04/02 00:29:11;;;;;;;15.48;13.98;;;;;;;;;;513093;28;1432;-80
2022/04/02 00:29:27;;;;;;;15.60;14.10;;;;;;;;;;510513;29;1502;-80
2022/04/02 00:29:42;;;;;;;15.65;14.05;;;;;;;;;;509941;28;1827;-80
2022/04/02 00:29:57;;;;;;;15.98;14.38;;;;;;;;;;510336;29;1459;-80
2022/04/02 00:30:13;;;;;;;15.60;14.10;;;;;;;;;;510627;28;1466;-80
2022/04/02 00:30:29;;;;;;;15.53;14.03;;;;;;;;;;511392;28;1497;-80
2022/04/02 00:30:45;;;;;;;15.73;14.23;;;;;;;;;;513300;28;1910;-80
2022/04/02 00:31:01;;;;;;;16.00;14.45;;;;;;;;;;515163;28;1389;-80
2022/04/02 00:31:18;;;;;;;16.00;14.40;;;;;;;;;;514982;28;1495;-80
2022/04/02 00:31:33;;;;;;;15.77;14.18;;;;;;;;;;516873;28;2292;-80
2022/04/02 00:31:49;;;;;;;15.40;13.97;;;;;;;;;;514792;28;1906;-80
2022/04/02 00:32:08;;;;;;;15.27;13.88;;;;;;;;;;514633;28;1573;-80
2022/04/02 00:32:23;;;;;;;14.80;13.40;;;;;;;;;;514616;28;1488;-80
2022/04/02 00:32:38;;;;;;;14.85;13.45;;;;;;;;;;512583;28;1509;-80
2022/04/02 00:32:54;;;;;;;15.13;13.63;;;;;;;;;;509872;29;1451;-80
2022/04/02 00:33:10;;;;;;;15.02;13.52;;;;;;;;;;511673;28;1446;-80
2022/04/02 00:33:26;;;;;;;15.15;13.70;;;;;;;;;;510420;28;1753;-80
2022/04/02 00:33:45;;;;;;;15.32;13.88;;;;;;;;;;511083;28;1540;-80
2022/04/02 00:34:00;;;;;;;15.25;13.85;;;;;;;;;;512128;28;1543;-80
2022/04/02 00:34:16;;;;;;;15.00;13.60;;;;;;;;;;511154;28;1566;-80
2022/04/02 00:34:32;;;;;;;15.27;13.77;;;;;;;;;;514242;28;1520;-80
2022/04/02 00:34:49;;;;;;;16.42;14.00;;;;;;;;;;514194;28;1400;-80
2022/04/02 00:35:05;;;;;;;15.95;13.68;;;;;;;;;;513789;28;1770;-81
2022/04/02 00:35:21;;;;;;;15.52;14.02;;;;;;;;;;515020;28;1552;-80
2022/04/02 00:35:36;;;;;;;16.20;14.50;;;;;;;;;;515461;28;1442;-80
2022/04/02 00:35:52;;;;;;;15.93;14.23;;;;;;;;;;515470;28;1550;-80
2022/04/02 00:36:11;;;;;;;15.90;14.30;;;;;;;;;;513824;28;1485;-80
2022/04/02 00:36:27;;;;;;;15.70;14.20;;;;;;;;;;513288;28;1493;-80
2022/04/02 00:36:44;;;;;;;15.85;14.35;;;;;;;;;;513718;28;1571;-80
2022/04/02 00:36:59;;;;;;;15.52;14.00;;;;;;;;;;514486;28;1467;-80
2022/04/02 00:37:15;;;;;;;15.45;13.88;;;;;;;;;;512068;28;1414;-80
2022/04/02 00:37:30;;;;;;;15.60;14.03;;;;;;;;;;512445;28;1619;-80
2022/04/02 00:37:46;;;;;;;15.63;14.13;;;;;;;;;;512529;28;1492;-81
2022/04/02 00:38:01;;;;;;;15.43;13.93;;;;;;;;;;511407;28;1541;-80
2022/04/02 00:38:16;;;;;;;15.27;13.77;;;;;;;;;;512734;28;1484;-81
2022/04/02 00:38:32;;;;;;;15.17;13.67;;;;;;;;;;512491;28;1488;-80
2022/04/02 00:38:48;;;;;;;14.77;13.38;;;;;;;;;;514435;28;1452;-80
2022/04/02 00:39:08;;;;;;;14.93;13.43;;;;;;;;;;512615;28;1496;-80
2022/04/02 00:39:23;;;;;;;15.05;13.55;;;;;;;;;;511824;28;1696;-80
2022/04/02 00:39:38;;;;;;;14.73;13.32;;;;;;;;;;510181;29;1589;-80
2022/04/02 00:39:54;;;;;;;14.13;12.77;;;;;;;;;;511178;28;1584;-80
2022/04/02 00:40:11;;;;;;;13.93;12.63;;;;;;;;;;512291;28;1403;-80
2022/04/02 00:40:29;;;;;;;14.02;12.73;;;;;;;;;;512388;28;1288;-80
2022/04/02 00:40:44;;;;;;;13.98;12.68;;;;;;;;;;512526;28;1437;-80
2022/04/02 00:40:59;;;;;;;14.10;12.80;;;;;;;;;;513910;28;1575;-80
2022/04/02 00:41:16;;;;;;;14.07;12.77;;;;;;;;;;514875;28;1694;-80
2022/04/02 00:41:32;;;;;;;13.93;12.63;;;;;;;;;;515440;28;1713;-80
2022/04/02 00:41:47;;;;;;;13.90;12.60;;;;;;;;;;514047;28;1484;-80
2022/04/02 00:42:03;;;;;;;13.80;12.50;;;;;;;;;;514422;28;1749;-80
2022/04/02 00:42:18;;;;;;;13.70;12.30;;;;;;;;;;513036;28;1450;-80
2022/04/02 00:42:34;;;;;;;13.25;11.95;;;;;;;;;;512529;28;1453;-80
2022/04/02 00:42:50;;;;;;;13.68;12.27;;;;;;;;;;514300;28;1578;-80
2022/04/02 00:43:05;;;;;;;14.37;12.90;;;;;;;;;;512217;28;1590;-81
2022/04/02 00:43:32;;;;;;;14.17;12.83;;;;;;;;;;511992;28;1377;-80
2022/04/02 00:44:08;;;;;;;13.93;12.63;;;;;;;;;;509075;29;1565;-80
2022/04/02 00:44:25;;;;;;;12.90;11.70;;;;;;;;;;510226;29;1954;-80
2022/04/02 00:44:40;;;;;;;13.07;11.77;;;;;;;;;;512299;28;1432;-80
2022/04/02 00:44:56;;;;;;;13.50;12.10;;;;;;;;;;511200;28;1626;-80
2022/04/02 00:45:11;;;;;;;13.45;12.15;;;;;;;;;;512300;28;1438;-80
2022/04/02 00:45:27;;;;;;;13.27;11.88;;;;;;;;;;510186;29;1583;-80
2022/04/02 00:45:43;;;;;;;13.45;12.15;;;;;;;;;;512869;28;1418;-80
2022/04/02 00:46:01;;;;;;;13.80;12.50;;;;;;;;;;513729;28;1739;-80
2022/04/02 00:46:17;;;;;;;13.02;11.82;;;;;;;;;;513194;28;1622;-81
2022/04/02 00:46:32;;;;;;;13.13;11.90;;;;;;;;;;511896;28;1445;-81
2022/04/02 00:46:48;;;;;;;13.73;12.40;;;;;;;;;;511918;28;1721;-80
2022/04/02 00:47:03;;;;;;;13.60;12.20;;;;;;;;;;512351;28;1521;-80
2022/04/02 00:47:20;;;;;;;14.05;12.65;;;;;;;;;;512615;28;1570;-80
2022/04/02 00:47:36;;;;;;;14.05;12.65;;;;;;;;;;514103;28;1535;-80
2022/04/02 00:47:51;;;;;;;13.40;12.10;;;;;;;;;;513740;28;1694;-80
2022/04/02 00:48:06;;;;;;;13.10;11.80;;;;;;;;;;514348;28;1556;-80
2022/04/02 00:48:23;;;;;;;13.13;11.83;;;;;;;;;;512958;28;1488;-80
2022/04/02 00:48:39;;;;;;;13.48;12.10;;;;;;;;;;514459;28;1563;-80
2022/04/02 00:48:55;;;;;;;13.50;12.20;;;;;;;;;;512546;28;1554;-80
2022/04/02 00:49:12;;;;;;;13.37;12.17;;;;;;;;;;512656;28;1439;-81
2022/04/02 00:49:28;;;;;;;13.43;12.13;;;;;;;;;;512030;28;1649;-81
2022/04/02 00:49:46;;;;;;;13.25;11.85;;;;;;;;;;510568;28;1469;-80
2022/04/02 00:50:01;;;;;;;13.32;11.93;;;;;;;;;;508996;28;1461;-79
2022/04/02 00:50:16;;;;;;;13.70;12.33;;;;;;;;;;510353;28;1546;-80
2022/04/02 00:50:33;;;;;;;14.20;12.70;;;;;;;;;;512480;28;1445;-80
2022/04/02 00:50:52;;;;;;;13.95;12.55;;;;;;;;;;512243;28;1591;-80
2022/04/02 00:51:12;;;;;;;14.13;12.73;;;;;;;;;;510525;28;1443;-81
2022/04/02 00:51:28;;;;;;;13.98;12.57;;;;;;;;;;510761;28;1414;-80
2022/04/02 00:51:45;;;;;;;13.47;12.13;;;;;;;;;;510285;29;1580;-80
2022/04/02 00:52:01;;;;;;;13.35;12.05;;;;;;;;;;512309;28;1512;-81
2022/04/02 00:52:16;;;;;;;12.83;11.53;;;;;;;;;;509569;29;1581;-80
2022/04/02 00:52:31;;;;;;;13.88;11.88;;;;;;;;;;511689;28;1524;-80
2022/04/02 00:52:47;;;;;;;13.93;12.43;;;;;;;;;;512240;28;1465;-80
2022/04/02 00:53:02;;;;;;;14.00;12.70;;;;;;;;;;512288;28;1545;-80
2022/04/02 00:53:19;;;;;;;13.97;12.57;;;;;;;;;;513087;28;1803;-80
2022/04/02 00:53:40;;;;;;;13.45;12.05;;;;;;;;;;511509;28;1755;-80
2022/04/02 00:53:55;;;;;;;12.98;11.68;;;;;;;;;;512848;28;1406;-80
2022/04/02 00:54:19;;;;;;;12.53;11.23;;;;;;;;;;513774;28;1548;-79
2022/04/02 00:54:35;;;;;;;12.18;10.98;;;;;;;;;;514523;28;1449;-80
2022/04/02 00:54:51;;;;;;;12.30;11.10;;;;;;;;;;514249;28;1794;-80
2022/04/02 00:55:07;;;;;;;12.48;11.18;;;;;;;;;;514112;28;1460;-80
2022/04/02 00:55:23;;;;;;;12.70;11.50;;;;;;;;;;514804;28;1784;-80
2022/04/02 00:55:39;;;;;;;12.90;11.63;;;;;;;;;;512066;28;1579;-80
2022/04/02 00:55:55;;;;;;;12.85;11.55;;;;;;;;;;512618;28;1547;-80
2022/04/02 00:56:13;;;;;;;14.07;11.82;;;;;;;;;;510287;29;1704;-80
2022/04/02 00:56:29;;;;;;;14.15;11.73;;;;;;;;;;511228;28;1684;-80
2022/04/02 00:56:47;;;;;;;12.48;11.25;;;;;;;;;;512306;28;1543;-80
2022/04/02 00:57:02;;;;;;;12.40;11.20;;;;;;;;;;511925;28;1533;-80
2022/04/02 00:57:18;;;;;;;12.07;10.97;;;;;;;;;;512417;28;1398;-80
2022/04/02 00:57:34;;;;;;;12.40;11.20;;;;;;;;;;513432;28;1409;-80
2022/04/02 00:57:51;;;;;;;13.10;11.75;;;;;;;;;;512554;28;1549;-80
2022/04/02 00:58:07;;;;;;;13.10;11.70;;;;;;;;;;513285;28;1603;-80
2022/04/02 00:58:23;;;;;;;12.68;11.45;;;;;;;;;;513906;28;1365;-81
2022/04/02 00:58:39;;;;;;;12.53;11.23;;;;;;;;;;513426;28;1616;-80
2022/04/02 00:58:54;;;;;;;12.98;11.68;;;;;;;;;;514275;28;1444;-80
2022/04/02 00:59:12;;;;;;;12.87;11.57;;;;;;;;;;513911;28;1681;-80
2022/04/02 00:59:27;;;;;;;13.65;11.65;;;;;;;;;;512306;28;1599;-80
2022/04/02 00:59:43;;;;;;;13.07;11.60;;;;;;;;;;511871;28;1741;-80
2022/04/02 00:59:59;;;;;;;12.50;11.30;;;;;;;;;;511050;28;1568;-80
2022/04/02 01:00:15;;;;;;;12.43;11.20;;;;;;;;;;512416;28;1421;-80
2022/04/02 01:00:30;;;;;;;12.60;11.40;;;;;;;;;;512638;28;1520;-80
2022/04/02 01:00:46;;;;;;;12.80;11.60;;;;;;;;;;510743;29;1724;-80
2022/04/02 01:01:02;;;;;;;12.98;11.68;;;;;;;;;;510751;28;1686;-80
2022/04/02 01:01:17;;;;;;;12.67;11.37;;;;;;;;;;511513;28;1663;-80
2022/04/02 01:01:33;;;;;;;12.15;10.93;;;;;;;;;;514339;28;1491;-80
2022/04/02 01:01:48;;;;;;;11.97;10.77;;;;;;;;;;514658;28;1932;-80
2022/04/02 01:02:04;;;;;;;12.13;10.93;;;;;;;;;;515970;28;1477;-80
2022/04/02 01:02:19;;;;;;;11.93;10.82;;;;;;;;;;516102;28;1432;-80
2022/04/02 01:02:35;;;;;;;11.90;10.70;;;;;;;;;;516810;28;1455;-80
2022/04/02 01:02:51;;;;;;;12.03;10.83;;;;;;;;;;516390;28;1610;-80
2022/04/02 01:03:07;;;;;;;11.60;10.40;;;;;;;;;;514769;28;1434;-80
2022/04/02 01:03:23;;;;;;;11.43;10.30;;;;;;;;;;514427;28;1584;-80
2022/04/02 01:03:39;;;;;;;11.80;10.60;;;;;;;;;;514630;28;1500;-80
2022/04/02 01:03:54;;;;;;;11.98;10.75;;;;;;;;;;514170;28;1492;-80
2022/04/02 01:04:09;;;;;;;11.40;10.30;;;;;;;;;;514963;28;1480;-80
2022/04/02 01:04:25;;;;;;;11.33;10.23;;;;;;;;;;514069;28;1922;-80
2022/04/02 01:04:41;;;;;;;11.50;10.43;;;;;;;;;;514626;28;1518;-80
2022/04/02 01:04:56;;;;;;;11.07;10.07;;;;;;;;;;514547;28;1429;-80
2022/04/02 01:05:12;;;;;;;11.17;10.10;;;;;;;;;;516244;28;1518;-80
2022/04/02 01:05:27;;;;;;;11.50;10.40;;;;;;;;;;515232;28;3073;-80
2022/04/02 01:05:44;;;;;;;11.90;10.70;;;;;;;;;;514081;28;1522;-80
2022/04/02 01:05:59;;;;;;;12.00;10.82;;;;;;;;;;511916;28;1460;-80
2022/04/02 01:06:14;;;;;;;12.10;10.97;;;;;;;;;;512651;28;1568;-80
2022/04/02 01:06:31;;;;;;;12.02;10.80;;;;;;;;;;514486;28;1394;-80
2022/04/02 01:06:47;;;;;;;12.18;10.60;;;;;;;;;;512123;28;1498;-80
2022/04/02 01:07:03;;;;;;;12.48;10.73;;;;;;;;;;512205;28;1559;-79
2022/04/02 01:07:20;;;;;;;12.57;11.18;;;;;;;;;;511891;28;1414;-80
2022/04/02 01:07:35;;;;;;;12.23;10.93;;;;;;;;;;513278;28;1597;-80
2022/04/02 01:07:51;;;;;;;12.20;11.00;;;;;;;;;;513484;28;1437;-80
2022/04/02 01:08:08;;;;;;;12.37;11.17;;;;;;;;;;514346;28;1607;-80
2022/04/02 01:08:24;;;;;;;12.10;10.90;;;;;;;;;;512849;28;1648;-80
2022/04/02 01:08:39;;;;;;;12.53;11.23;;;;;;;;;;510724;28;1493;-80
2022/04/02 01:08:55;;;;;;;12.57;11.35;;;;;;;;;;510771;28;1495;-80
2022/04/02 01:09:11;;;;;;;12.37;11.07;;;;;;;;;;511055;28;1362;-80
2022/04/02 01:09:26;;;;;;;12.02;10.73;;;;;;;;;;511546;28;1502;-80
2022/04/02 01:09:41;;;;;;;11.80;10.70;;;;;;;;;;511112;28;1601;-80
2022/04/02 01:09:57;;;;;;;11.88;10.77;;;;;;;;;;510730;28;1725;-80
2022/04/02 01:10:12;;;;;;;11.70;10.60;;;;;;;;;;511134;28;1488;-80
2022/04/02 01:10:28;;;;;;;11.85;10.65;;;;;;;;;;509397;28;1531;-80
2022/04/02 01:10:44;;;;;;;12.27;11.07;;;;;;;;;;511698;28;1709;-80
2022/04/02 01:10:59;;;;;;;12.30;11.10;;;;;;;;;;512014;28;1821;-80
2022/04/02 01:11:15;;;;;;;12.02;10.82;;;;;;;;;;512220;28;1380;-80
2022/04/02 01:11:41;;;;;;;13.10;10.90;;;;;;;;;;514813;28;1554;-80
2022/04/02 01:11:57;;;;;;;11.80;10.60;;;;;;;;;;516440;28;1507;-80
2022/04/02 01:12:12;;;;;;;12.10;10.90;;;;;;;;;;516218;28;1499;-80
2022/04/02 01:12:28;;;;;;;12.40;11.15;;;;;;;;;;516918;28;1403;-80
2022/04/02 01:12:44;;;;;;;12.17;10.87;;;;;;;;;;515928;28;1558;-80
2022/04/02 01:13:00;;;;;;;11.73;10.52;;;;;;;;;;513961;28;1567;-80
2022/04/02 01:13:16;;;;;;;11.40;10.30;;;;;;;;;;512155;28;1477;-80
2022/04/02 01:13:32;;;;;;;11.32;10.25;;;;;;;;;;512689;28;1455;-80
2022/04/02 01:13:47;;;;;;;11.35;10.15;;;;;;;;;;512441;28;1434;-79
2022/04/02 01:14:03;;;;;;;11.07;9.95;;;;;;;;;;512167;28;1508;-79
2022/04/02 01:14:19;;;;;;;10.95;9.88;;;;;;;;;;510558;28;1348;-80
2022/04/02 01:14:34;;;;;;;10.63;9.63;;;;;;;;;;511444;28;1520;-80
2022/04/02 01:14:49;;;;;;;10.73;9.63;;;;;;;;;;512592;28;1532;-80
2022/04/02 01:15:05;;;;;;;10.60;9.50;;;;;;;;;;513519;28;1793;-80
2022/04/02 01:15:21;;;;;;;10.73;9.63;;;;;;;;;;512422;28;1512;-80
2022/04/02 01:15:37;;;;;;;10.60;9.55;;;;;;;;;;510393;29;1681;-80
2022/04/02 01:15:53;;;;;;;10.75;9.15;;;;;;;;;;511207;28;1461;-80
2022/04/02 01:16:08;;;;;;;10.32;8.77;;;;;;;;;;510853;28;1622;-80
2022/04/02 01:16:23;;;;;;;9.60;8.60;;;;;;;;;;512951;28;1453;-80
2022/04/02 01:16:39;;;;;;;10.17;8.57;;;;;;;;;;510362;29;1508;-80
2022/04/02 01:16:54;;;;;;;9.60;8.50;;;;;;;;;;510562;29;1521;-80
2022/04/02 01:17:10;;;;;;;9.23;8.32;;;;;;;;;;508692;29;1486;-80
2022/04/02 01:17:25;;;;;;;9.37;8.47;;;;;;;;;;508799;29;1420;-80
2022/04/02 01:17:41;;;;;;;9.20;8.30;;;;;;;;;;510612;29;1565;-80
2022/04/02 01:17:56;;;;;;;9.05;8.15;;;;;;;;;;509072;29;1418;-80
2022/04/02 01:18:11;;;;;;;9.30;8.40;;;;;;;;;;510144;28;1494;-80
2022/04/02 01:18:27;;;;;;;9.13;8.23;;;;;;;;;;511198;28;1514;-81
2022/04/02 01:18:43;;;;;;;9.10;8.20;;;;;;;;;;510454;29;1465;-80
2022/04/02 01:18:58;;;;;;;9.30;8.40;;;;;;;;;;511306;28;1437;-80
2022/04/02 01:19:14;;;;;;;9.65;8.77;;;;;;;;;;510192;28;1474;-81
2022/04/02 01:19:29;;;;;;;9.43;8.53;;;;;;;;;;510327;29;1548;-80
2022/04/02 01:19:44;;;;;;;9.13;8.10;;;;;;;;;;510348;29;1422;-80
2022/04/02 01:20:00;;;;;;;9.25;8.15;;;;;;;;;;508422;29;1439;-80
2022/04/02 01:20:17;;;;;;;9.48;8.48;;;;;;;;;;508100;29;1628;-80
2022/04/02 01:20:34;;;;;;;9.63;8.55;;;;;;;;;;508355;29;1477;-80
2022/04/02 01:20:49;;;;;;;10.13;8.85;;;;;;;;;;508338;29;1498;-80
2022/04/02 01:21:05;;;;;;;10.43;8.85;;;;;;;;;;509391;29;1711;-80
2022/04/02 01:21:20;;;;;;;9.70;8.70;;;;;;;;;;511377;28;1802;-80
2022/04/02 01:21:36;;;;;;;9.68;8.77;;;;;;;;;;513038;28;1459;-79
2022/04/02 01:21:52;;;;;;;9.77;8.82;;;;;;;;;;515223;28;1430;-79
2022/04/02 01:22:07;;;;;;;10.00;9.00;;;;;;;;;;515091;28;1416;-80
2022/04/02 01:22:22;;;;;;;9.80;8.87;;;;;;;;;;513995;28;1441;-80
2022/04/02 01:22:38;;;;;;;9.80;8.80;;;;;;;;;;515823;28;1602;-80
2022/04/02 01:22:53;;;;;;;11.18;8.98;;;;;;;;;;513586;28;1638;-80
2022/04/02 01:23:09;;;;;;;10.73;8.50;;;;;;;;;;513791;28;1654;-80
2022/04/02 01:23:29;;;;;;;9.40;8.50;;;;;;;;;;512129;28;1556;-79
2022/04/02 01:23:44;;;;;;;9.57;8.68;;;;;;;;;;511737;28;1456;-80
2022/04/02 01:24:00;;;;;;;9.18;8.27;;;;;;;;;;509798;29;1708;-80
2022/04/02 01:24:16;;;;;;;9.35;8.40;;;;;;;;;;509637;29;1966;-80
2022/04/02 01:24:31;;;;;;;9.53;8.63;;;;;;;;;;511901;28;1456;-80
2022/04/02 01:24:46;;;;;;;9.63;8.63;;;;;;;;;;511519;28;1476;-80
2022/04/02 01:25:03;;;;;;;10.47;8.60;;;;;;;;;;512396;28;1921;-80
2022/04/02 01:25:19;;;;;;;9.70;8.65;;;;;;;;;;512732;28;1512;-79
2022/04/02 01:25:36;;;;;;;10.00;9.00;;;;;;;;;;515051;28;1424;-80
2022/04/02 01:25:51;;;;;;;9.75;8.85;;;;;;;;;;516844;28;1389;-80
2022/04/02 01:26:06;;;;;;;9.20;8.30;;;;;;;;;;516285;28;1476;-80
2022/04/02 01:26:22;;;;;;;9.30;8.40;;;;;;;;;;517228;28;1801;-80
2022/04/02 01:26:37;;;;;;;9.50;8.60;;;;;;;;;;518805;28;1404;-80
2022/04/02 01:26:53;;;;;;;9.70;8.70;;;;;;;;;;516772;28;1516;-79
2022/04/02 01:27:08;;;;;;;9.70;8.70;;;;;;;;;;514768;28;1559;-80
2022/04/02 01:27:23;;;;;;;9.20;8.30;;;;;;;;;;514524;28;1759;-80
2022/04/02 01:27:39;;;;;;;9.02;8.13;;;;;;;;;;514796;28;1424;-80
2022/04/02 01:27:54;;;;;;;8.83;8.03;;;;;;;;;;514631;28;2182;-80
2022/04/02 01:28:10;;;;;;;8.90;8.00;;;;;;;;;;514974;28;1527;-79
2022/04/02 01:28:33;;;;;;;9.37;8.20;;;;;;;;;;514382;28;1662;-80
2022/04/02 01:28:53;;;;;;;9.65;8.25;;;;;;;;;;515342;28;1507;-80
2022/04/02 01:29:09;;;;;;;9.40;8.50;;;;;;;;;;514633;28;1548;-80
2022/04/02 01:29:24;;;;;;;9.65;8.65;;;;;;;;;;512562;28;1517;-80
2022/04/02 01:29:40;;;;;;;9.60;8.63;;;;;;;;;;511986;28;1803;-80
2022/04/02 01:29:55;;;;;;;9.17;8.37;;;;;;;;;;512170;28;1575;-80
2022/04/02 01:30:13;;;;;;;9.40;8.50;;;;;;;;;;510446;29;1529;-79
2022/04/02 01:30:29;;;;;;;9.25;8.35;;;;;;;;;;510210;29;1602;-80
2022/04/02 01:30:45;;;;;;;9.38;8.48;;;;;;;;;;511353;28;1481;-80
2022/04/02 01:31:06;;;;;;;9.18;8.38;;;;;;;;;;513692;28;1446;-80
2022/04/02 01:31:23;;;;;;;9.27;8.38;;;;;;;;;;512422;28;1492;-80
2022/04/02 01:31:43;;;;;;;9.23;8.32;;;;;;;;;;511037;28;1896;-80
2022/04/02 01:31:59;;;;;;;9.00;8.10;;;;;;;;;;513555;28;1473;-80
2022/04/02 01:32:14;;;;;;;9.00;8.10;;;;;;;;;;514722;28;1451;-80
2022/04/02 01:32:30;;;;;;;9.10;8.20;;;;;;;;;;514532;28;1554;-80
2022/04/02 01:32:45;;;;;;;9.07;8.17;;;;;;;;;;512649;28;1489;-80
2022/04/02 01:33:01;;;;;;;8.95;8.05;;;;;;;;;;510544;28;1485;-80
2022/04/02 01:33:16;;;;;;;8.80;7.90;;;;;;;;;;510748;28;1437;-80
2022/04/02 01:33:32;;;;;;;8.90;8.00;;;;;;;;;;509260;28;1462;-80
2022/04/02 01:33:52;;;;;;;9.10;8.30;;;;;;;;;;508779;29;1678;-80
2022/04/02 01:34:07;;;;;;;8.98;8.07;;;;;;;;;;510703;29;1419;-80
2022/04/02 01:34:22;;;;;;;8.73;7.82;;;;;;;;;;510689;29;1683;-80
2022/04/02 01:34:38;;;;;;;9.07;8.20;;;;;;;;;;511377;28;1414;-79
2022/04/02 01:34:53;;;;;;;9.60;8.70;;;;;;;;;;512075;28;1462;-80
2022/04/02 01:35:10;;;;;;;9.80;8.80;;;;;;;;;;513776;28;1416;-80
2022/04/02 01:35:26;;;;;;;9.38;8.48;;;;;;;;;;513045;28;1510;-80
2022/04/02 01:35:41;;;;;;;9.40;8.50;;;;;;;;;;513990;28;1587;-80
2022/04/02 01:36:00;;;;;;;9.38;8.48;;;;;;;;;;515193;28;1401;-80
2022/04/02 01:36:16;;;;;;;9.50;8.60;;;;;;;;;;514968;28;1409;-79
2022/04/02 01:36:32;;;;;;;9.57;8.68;;;;;;;;;;512615;28;1523;-80
2022/04/02 01:36:47;;;;;;;9.57;8.60;;;;;;;;;;511399;28;1495;-80
2022/04/02 01:37:03;;;;;;;9.60;8.60;;;;;;;;;;508404;29;1834;-80
2022/04/02 01:37:18;;;;;;;9.18;8.27;;;;;;;;;;510559;29;1364;-79
2022/04/02 01:37:36;;;;;;;9.33;8.00;;;;;;;;;;509760;29;1394;-80
2022/04/02 01:37:52;;;;;;;9.57;8.57;;;;;;;;;;510930;28;1450;-80